Página principal
METAR-TAF:

METAR-TAF

Aeroportos :

Perm, Rússia

latitude: 58-00N, longitude: 056-15E, altura: 170 m

Observação actual do tempo

O boletim foi feito há 19 minutos, às 00:00 UTC
Vento 4 kt de sul
Temperatura 13°C
Humidade 94%
Pressão 1013 hPa
Visibilidade: 9000 m

METAR: USPP 240000Z 19002MPS 9000 NSC 13/12 Q1013 R21/090060 TEMPO 1000 BR SCT002 RMK QFE749

Hora: 05:19 (00:19 UTC)

Previsão

O boletim foi feito há 1 hora e 21 minutos, às 22:58 UTC
Previsão válida de 24 às 00 UTC a 24 às 24 UTC
Vento 6 kt de su-sudeste
Visibilidade: 3100 m
neblina
Temporariamente
de 24 às 00 UTC a 24 às 03 UTC
Visibilidade: 1100 m
Nuvens dispersasa uma altura de 1100 ft
neblina
Tornando-se
de 24 às 03 UTC a 24 às 05 UTC
Vento 14 kt de su-sudoeste com rajadas de 25 kt
Tornando-se
de 24 às 05 UTC a 24 às 06 UTC
Visibilidade 10 km ou mais

TAF: USPP 232258Z 2400/2424 16003MPS 3100 BR NSC TEMPO 2400/2403 1100 BR SCT011 BECMG 2403/2405 20007G13MPS BECMG 2405/2406 9999 NSW

Observações e previsões do tempo de mais de 4000 aeroportos (mensagens METAR e TAF).

As estações disponíveis são os pontos amarelos e vermelhos sobre o mapa.

Mova o rato sobre o mapa para ver o nome da estação.

Depois clique no ponto para visualizar as observações e previsões meteorológicas.

Para alterar o mapa : clique nos botões verdes com uma cruz preta para aumentar o zoom; no botão verde com uma pitada de zoom; ou nas setas verdes para mapas adjacentes.


METAR-TAF: